This is the latest recevied weather packets stored in our database for station/object KC1BRV. If no packets are shown the sender has not sent any weather packets the latest 1 day(s).
| Time | Temp. | Humidity | Pressure | Rain* | Wind** | Luminosity | Snow |
|---|---|---|---|---|---|---|---|
| 1778085212 | 19.44° C | 67% | 1011.2 hPa | 0 mm | - | 644 W/m² | - |
| 1778084606 | 18.89° C | 68% | 1011.6 hPa | 0 mm | - | 542 W/m² | - |
| 1778083698 | 18.89° C | 69% | 1011.5 hPa | 0 mm | - | 322 W/m² | - |
| 1778080451 | 19.44° C | 67% | 1011.8 hPa | 0 mm | - | 697 W/m² | - |
| 1778080149 | 19.44° C | 67% | 1012.1 hPa | 0 mm | - | 613 W/m² | - |
| 1778078027 | 19.44° C | 68% | 1012.1 hPa | 0 mm | - | 208 W/m² | - |
| 1778077121 | 18.89° C | 71% | 1012.3 hPa | 0 mm | - | 658 W/m² | - |
| 1778076213 | 18.89° C | 70% | 1012.1 hPa | 0 mm | - | 219 W/m² | - |
| 1778075910 | 18.33° C | 71% | 1011.9 hPa | 0 mm | - | 259 W/m² | - |
| 1778075303 | 17.78° C | 72% | 1011.9 hPa | 0 mm | - | 203 W/m² | - |
| 1778074697 | 18.33° C | 72% | 1012.2 hPa | 0 mm | - | 181 W/m² | - |
| 1778072878 | 17.22° C | 74% | 1012.3 hPa | 0 mm | - | 279 W/m² | - |
| 1778072575 | 17.22° C | 75% | 1012.6 hPa | 0 mm | - | 158 W/m² | - |
| 1778072273 | 17.22° C | 76% | 1012.5 hPa | 0 mm | - | 158 W/m² | - |
| 1778071669 | 16.67° C | 77% | 1012.5 hPa | 0 mm | - | 145 W/m² | - |
| 1778071366 | 16.67° C | 76% | 1012.5 hPa | 0 mm | - | 153 W/m² | - |
| 1778070762 | 16.67° C | 77% | 1012.4 hPa | 0 mm | - | 256 W/m² | - |
| 1778069550 | 15.56° C | 81% | 1012.7 hPa | 0 mm | - | 153 W/m² | - |
| 1778068643 | 15° C | 83% | 1012.6 hPa | 0 mm | - | 115 W/m² | - |
| 1778067736 | 14.44° C | 85% | 1012.9 hPa | 0 mm | - | 84 W/m² | - |
| 1778067434 | 14.44° C | 86% | 1012.9 hPa | 0 mm | - | 65 W/m² | - |
| 1778065315 | 13.89° C | 89% | 1012.9 hPa | 0 mm | - | 61 W/m² | - |
| 1778064708 | 13.89° C | 89% | 1012.9 hPa | 0 mm | - | 24 W/m² | - |
| 1778062893 | 13.89° C | 90% | 1012.6 hPa | 0 mm | - | 27 W/m² | - |
| 1778062286 | 13.33° C | 90% | 1012.6 hPa | 0 mm | - | 22 W/m² | - |
* Rain latest hour (hover to see other rain measurements)
** Current wind speed in m/s (hover to see current wind gust speed)